Time;durP1;ratioP1;P1;durP2;ratioP2;P2;SDS_P1;SDS_P2;PMS_P1;PMS_P2;Temp;Humidity;BMP_temperature;BMP_pressure;BME280_temperature;BME280_humidity;BME280_pressure;Samples;Min_cycle;Max_cycle;Signal;HPM_P1;HPM_P2
2021/12/01 00:01:31;;;;;;;28.55;10.90;;;;;;;6.40;100.00;99771.94;4996962;28;20037;-80
2021/12/01 00:03:59;;;;;;;26.17;11.50;;;;;;;6.43;100.00;99769.34;5053766;28;20032;-80
2021/12/01 00:06:28;;;;;;;33.58;12.73;;;;;;;6.47;100.00;99762.38;5043106;28;20044;-81
2021/12/01 00:08:56;;;;;;;28.90;11.93;;;;;;;6.50;100.00;99746.66;5081495;28;20501;-80
2021/12/01 00:11:25;;;;;;;32.17;11.20;;;;;;;6.52;100.00;99743.19;5051807;28;20430;-81
2021/12/01 00:13:53;;;;;;;34.25;11.60;;;;;;;6.55;100.00;99730.09;5054758;28;20402;-81
2021/12/01 00:16:22;;;;;;;32.67;11.60;;;;;;;6.60;100.00;99723.13;5005129;28;20047;-81
2021/12/01 00:18:52;;;;;;;32.65;11.50;;;;;;;6.64;100.00;99719.63;5071409;28;20072;-81
2021/12/01 00:21:20;;;;;;;31.50;11.43;;;;;;;6.68;100.00;99699.56;5036289;28;20052;-81
2021/12/01 00:23:49;;;;;;;30.98;11.35;;;;;;;6.70;100.00;99695.19;5061416;28;20240;-81
2021/12/01 00:26:17;;;;;;;23.40;10.57;;;;;;;6.74;100.00;99696.09;5049360;28;20043;-81
2021/12/01 00:28:46;;;;;;;26.85;10.20;;;;;;;6.77;100.00;99680.38;5050756;28;20045;-81
2021/12/01 00:31:17;;;;;;;32.67;12.02;;;;;;;6.81;100.00;99671.66;5017989;28;20839;-81
2021/12/01 00:33:52;;;;;;;30.80;11.90;;;;;;;6.85;100.00;99667.28;5056208;28;20045;-81
2021/12/01 00:36:21;;;;;;;34.03;12.45;;;;;;;6.87;100.00;99660.28;5063711;28;20044;-81
2021/12/01 00:38:49;;;;;;;34.92;13.05;;;;;;;6.89;100.00;99650.69;5048779;28;20047;-81
2021/12/01 00:41:21;;;;;;;39.70;14.88;;;;;;;6.92;100.00;99632.34;5050708;28;20367;-81
2021/12/01 00:43:50;;;;;;;31.88;12.93;;;;;;;6.95;100.00;99627.09;5039713;28;20047;-81
2021/12/01 00:46:42;;;;;;;38.42;14.30;;;;;;;6.98;100.00;99616.63;5026987;28;20048;-80
2021/12/01 00:49:08;;;;;;;39.05;15.10;;;;;;;7.03;100.00;99602.66;5065917;28;20040;-81
2021/12/01 00:51:37;;;;;;;37.80;15.07;;;;;;;7.10;100.00;99600.88;5064325;28;20071;-80
2021/12/01 00:54:05;;;;;;;34.03;15.95;;;;;;;7.15;100.00;99585.16;5043995;28;20040;-81
2021/12/01 00:56:33;;;;;;;35.90;16.67;;;;;;;7.21;100.00;99591.22;5042647;28;20401;-82
2021/12/01 00:59:02;;;;;;;40.83;18.50;;;;;;;7.28;100.00;99581.63;5043474;28;20056;-80
2021/12/01 01:01:31;;;;;;;38.55;18.85;;;;;;;7.34;100.00;99565.00;5022068;28;20044;-81
2021/12/01 01:03:59;;;;;;;44.15;21.13;;;;;;;7.39;100.00;99557.97;5052158;28;20049;-81
2021/12/01 01:06:28;;;;;;;47.00;21.75;;;;;;;7.44;100.00;99560.59;5033080;28;20056;-80
2021/12/01 01:08:56;;;;;;;45.30;22.73;;;;;;;7.49;100.00;99556.19;5064346;28;20040;-81
2021/12/01 01:17:06;;;;;;;56.50;25.42;;;;;;;7.64;100.00;99531.63;5034361;28;20049;-81
2021/12/01 01:19:38;;;;;;;54.15;27.08;;;;;;;7.67;100.00;99515.88;5056679;28;20056;-80
2021/12/01 01:22:08;;;;;;;46.08;24.92;;;;;;;7.70;100.00;99511.50;5055561;28;20075;-82
2021/12/01 01:24:37;;;;;;;51.28;26.80;;;;;;;7.74;100.00;99505.34;5049289;28;20044;-81
2021/12/01 01:27:06;;;;;;;50.90;27.35;;;;;;;7.76;100.00;99500.97;5040195;28;20037;-81
2021/12/01 01:29:36;;;;;;;53.40;26.95;;;;;;;7.80;100.00;99493.94;5052718;28;20060;-81
2021/12/01 01:32:05;;;;;;;49.75;27.85;;;;;;;7.81;100.00;99488.69;5037095;28;20056;-80
2021/12/01 01:34:34;;;;;;;40.08;23.23;;;;;;;7.84;100.00;99476.44;5050685;28;20020;-81
2021/12/01 01:37:02;;;;;;;42.38;24.50;;;;;;;7.86;100.00;99470.28;5019261;28;20053;-80
2021/12/01 01:39:31;;;;;;;43.35;24.50;;;;;;;7.87;100.00;99451.06;5047962;28;20049;-82
2021/12/01 01:42:01;;;;;;;36.50;21.65;;;;;;;7.87;100.00;99456.31;5042898;28;20405;-81
2021/12/01 01:44:31;;;;;;;41.43;22.80;;;;;;;7.89;100.00;99456.31;5016295;28;20052;-81
2021/12/01 01:47:00;;;;;;;34.80;20.42;;;;;;;7.90;100.00;99443.19;5035228;28;20295;-80
2021/12/01 01:50:23;;;;;;;41.03;21.83;;;;;;;7.91;100.00;99431.78;5005993;28;20052;-81
2021/12/01 01:52:26;;;;;;;42.40;22.13;;;;;;;7.91;100.00;99423.91;5053532;28;20057;-81
2021/12/01 01:54:55;;;;;;;41.25;22.65;;;;;;;7.93;100.00;99418.66;5051839;28;20040;-81
2021/12/01 01:57:23;;;;;;;38.85;20.98;;;;;;;7.94;100.00;99402.03;5020108;28;20060;-81
2021/12/01 01:59:52;;;;;;;33.85;20.58;;;;;;;7.95;100.00;99406.41;5048424;28;20053;-82
2021/12/01 02:02:20;;;;;;;47.50;20.20;;;;;;;7.96;100.00;99397.66;5022970;28;21135;-81
2021/12/01 02:04:52;;;;;;;28.85;16.77;;;;;;;7.97;100.00;99394.13;5037937;28;20051;-81
2021/12/01 02:07:23;;;;;;;28.83;17.63;;;;;;;8.00;100.00;99391.50;5041516;28;20631;-81
2021/12/01 02:09:52;;;;;;;30.35;17.52;;;;;;;8.02;100.00;99381.84;5038364;28;20064;-81
2021/12/01 02:12:21;;;;;;;33.10;17.40;;;;;;;8.05;100.00;99380.94;5060335;28;20244;-80
2021/12/01 02:14:50;;;;;;;24.52;15.05;;;;;;;8.07;100.00;99368.69;5046520;28;20490;-80
2021/12/01 02:17:19;;;;;;;27.48;15.55;;;;;;;8.08;100.00;99350.31;5024165;28;20048;-81
2021/12/01 02:19:51;;;;;;;28.55;14.07;;;;;;;8.09;100.00;99349.44;5025812;28;20068;-81
2021/12/01 02:22:20;;;;;;;22.48;11.00;;;;;;;8.11;100.00;99338.91;5060899;28;20601;-81
2021/12/01 02:24:48;;;;;;;24.85;12.52;;;;;;;8.13;100.00;99337.16;5036988;28;20033;-82
2021/12/01 02:27:17;;;;;;;17.58;10.60;;;;;;;8.12;100.00;99320.50;5044708;28;20048;-81
2021/12/01 02:29:45;;;;;;;24.10;10.88;;;;;;;8.13;100.00;99309.16;5070246;28;20414;-81
2021/12/01 02:32:17;;;;;;;21.55;10.57;;;;;;;8.15;100.00;99304.75;5050295;28;20044;-81
2021/12/01 02:34:45;;;;;;;18.42;8.80;;;;;;;8.14;100.00;99299.50;5005500;28;20044;-81
2021/12/01 02:37:14;;;;;;;19.80;9.80;;;;;;;8.16;100.00;99292.50;5048841;28;20265;-82
2021/12/01 02:39:45;;;;;;;17.90;7.25;;;;;;;8.15;100.00;99278.50;5045542;28;20044;-80
2021/12/01 02:42:27;;;;;;;18.40;7.20;;;;;;;8.17;100.00;99276.75;5049720;28;20064;-81
2021/12/01 02:44:56;;;;;;;14.27;6.40;;;;;;;8.20;100.00;99278.44;5054287;28;20048;-81
2021/12/01 02:47:26;;;;;;;15.65;6.13;;;;;;;8.20;100.00;99281.06;5041493;28;20080;-81
2021/12/01 02:49:55;;;;;;;15.45;5.45;;;;;;;8.20;100.00;99281.97;5021723;28;20045;-82
2021/12/01 02:52:24;;;;;;;10.13;4.40;;;;;;;8.21;100.00;99259.19;5042968;28;20045;-81
2021/12/01 02:54:53;;;;;;;13.80;4.25;;;;;;;8.22;100.00;99255.66;5025416;28;20049;-81
2021/12/01 02:57:22;;;;;;;9.38;4.45;;;;;;;8.21;100.00;99256.56;5049687;28;20697;-81
2021/12/01 02:59:51;;;;;;;8.27;4.40;;;;;;;8.22;100.00;99252.19;5046933;28;20045;-81
2021/12/01 03:02:20;;;;;;;7.82;3.65;;;;;;;8.22;100.00;99247.78;5060049;28;20072;-81
2021/12/01 03:04:49;;;;;;;6.63;3.25;;;;;;;8.22;100.00;99246.94;5020417;28;20060;-81
2021/12/01 03:07:17;;;;;;;6.50;2.42;;;;;;;8.22;100.00;99233.81;4994075;28;20449;-82
2021/12/01 03:09:46;;;;;;;4.25;2.85;;;;;;;8.22;100.00;99218.06;5045642;28;20375;-81
2021/12/01 03:12:14;;;;;;;5.03;2.33;;;;;;;8.22;100.00;99212.81;5064639;28;20044;-79
2021/12/01 03:14:44;;;;;;;4.10;2.55;;;;;;;8.22;100.00;99211.06;5023552;28;20044;-81
2021/12/01 03:17:12;;;;;;;4.95;2.40;;;;;;;8.23;100.00;99201.47;5023347;28;20049;-81
2021/12/01 03:19:41;;;;;;;3.15;2.20;;;;;;;8.23;100.00;99190.97;5063156;28;20048;-81
2021/12/01 03:22:13;;;;;;;2.97;1.90;;;;;;;8.23;100.00;99193.59;5000185;28;20687;-82
2021/12/01 03:24:44;;;;;;;7.78;2.55;;;;;;;8.24;100.00;99180.44;5061395;28;20048;-81
2021/12/01 03:27:15;;;;;;;1.77;1.63;;;;;;;8.25;100.00;99165.56;5057686;28;20269;-81
2021/12/01 03:29:50;;;;;;;4.38;1.73;;;;;;;8.26;100.00;99159.41;5063189;28;21636;-81
2021/12/01 03:32:20;;;;;;;3.58;2.20;;;;;;;8.27;100.00;99148.91;5065555;28;20199;-81
2021/12/01 03:34:48;;;;;;;3.38;1.58;;;;;;;8.27;100.00;99135.78;5072370;28;20036;-81
2021/12/01 03:37:17;;;;;;;3.75;1.45;;;;;;;8.29;100.00;99117.38;5001540;28;20234;-81
2021/12/01 03:39:45;;;;;;;5.30;1.88;;;;;;;8.31;100.00;99118.22;5051399;28;20064;-82
2021/12/01 03:42:14;;;;;;;5.65;1.58;;;;;;;8.33;100.00;99113.81;5054927;28;20549;-79
2021/12/01 03:44:42;;;;;;;4.10;1.45;;;;;;;8.34;100.00;99107.69;5033152;28;20045;-81
2021/12/01 03:47:10;;;;;;;4.80;1.85;;;;;;;8.34;100.00;99103.31;5041296;28;20045;-80
2021/12/01 03:49:39;;;;;;;5.65;1.30;;;;;;;8.34;100.00;99095.44;5030942;28;20056;-81
2021/12/01 03:52:13;;;;;;;4.10;1.40;;;;;;;8.36;100.00;99088.41;5020919;28;20052;-81
2021/12/01 03:54:43;;;;;;;4.78;1.42;;;;;;;8.39;100.00;99072.59;5060737;28;20040;-81
2021/12/01 03:57:12;;;;;;;5.87;1.30;;;;;;;8.40;100.00;99065.59;5039157;28;20236;-81
2021/12/01 03:59:41;;;;;;;4.53;1.50;;;;;;;8.42;100.00;99068.22;5058852;28;20397;-81
2021/12/01 04:02:10;;;;;;;9.98;2.15;;;;;;;8.43;100.00;99062.97;5024556;28;20044;-80
2021/12/01 04:04:39;;;;;;;11.35;2.55;;;;;;;8.45;100.00;99045.44;5048452;28;20052;-81
2021/12/01 04:07:07;;;;;;;7.97;1.83;;;;;;;8.46;100.00;99049.75;4986586;28;20056;-82
2021/12/01 04:09:43;;;;;;;8.13;1.75;;;;;;;8.49;100.00;99039.22;5044751;28;20044;-81
2021/12/01 04:12:12;;;;;;;8.50;1.50;;;;;;;8.48;100.00;99037.47;5038513;28;20430;-82
2021/12/01 04:14:40;;;;;;;15.23;2.17;;;;;;;8.47;100.00;99014.75;5035001;28;20025;-81
2021/12/01 04:17:09;;;;;;;5.35;1.42;;;;;;;8.46;100.00;99018.25;5058413;28;20044;-81
2021/12/01 04:19:38;;;;;;;4.75;1.50;;;;;;;8.44;100.00;99001.69;5058842;28;20071;-81
2021/12/01 04:22:07;;;;;;;9.73;2.30;;;;;;;8.43;100.00;98988.56;5035635;28;20055;-81
2021/12/01 04:24:36;;;;;;;13.73;2.80;;;;;;;8.41;100.00;98980.69;5055561;28;20044;-80
2021/12/01 04:27:09;;;;;;;15.73;2.75;;;;;;;8.45;100.00;98986.78;5042015;28;20028;-81
2021/12/01 04:29:38;;;;;;;13.30;2.22;;;;;;;8.44;100.00;98972.81;5047250;28;20048;-81
2021/12/01 04:32:08;;;;;;;14.98;2.83;;;;;;;8.43;100.00;98976.34;5048881;28;20052;-82
2021/12/01 04:34:37;;;;;;;13.95;2.70;;;;;;;8.42;100.00;98961.47;5071229;28;20103;-81
2021/12/01 04:37:06;;;;;;;17.98;2.60;;;;;;;8.42;100.00;98953.59;5028581;28;20040;-81
2021/12/01 04:39:34;;;;;;;11.93;1.98;;;;;;;8.43;100.00;98951.84;5051167;28;20040;-80
2021/12/01 04:42:05;;;;;;;10.18;2.40;;;;;;;8.41;100.00;98943.94;5036392;28;20053;-81
2021/12/01 04:44:35;;;;;;;12.73;2.58;;;;;;;8.40;100.00;98934.34;5053842;28;20382;-80
2021/12/01 04:47:13;;;;;;;18.38;3.20;;;;;;;8.38;100.00;98929.13;5048294;28;20048;-80
2021/12/01 04:49:42;;;;;;;6.25;1.80;;;;;;;8.37;100.00;98921.28;5023307;28;20053;-80
2021/12/01 04:52:11;;;;;;;8.27;1.92;;;;;;;8.39;100.00;98903.75;4995839;28;20478;-80
2021/12/01 04:54:39;;;;;;;9.05;2.20;;;;;;;8.39;100.00;98893.25;5040659;28;20049;-81
2021/12/01 04:57:10;;;;;;;5.38;1.70;;;;;;;8.39;100.00;98883.63;5030077;28;20059;-81
2021/12/01 04:59:38;;;;;;;9.15;2.22;;;;;;;8.38;100.00;98878.41;5035599;28;20505;-81
2021/12/01 05:02:07;;;;;;;8.35;2.08;;;;;;;8.38;100.00;98867.91;5048272;28;20061;-81
2021/12/01 05:04:35;;;;;;;4.05;1.70;;;;;;;8.37;100.00;98874.94;5028632;28;20052;-81
2021/12/01 05:07:04;;;;;;;6.22;1.75;;;;;;;8.38;100.00;98854.78;5038820;28;20032;-80
2021/12/01 05:09:32;;;;;;;2.05;1.60;;;;;;;8.36;100.00;98839.06;5002665;28;20493;-81
2021/12/01 05:12:02;;;;;;;3.50;1.70;;;;;;;8.36;100.00;98832.97;5043450;28;20051;-82
2021/12/01 05:14:30;;;;;;;4.97;1.67;;;;;;;8.36;100.00;98831.19;5041074;28;20041;-80
2021/12/01 05:16:59;;;;;;;3.58;1.92;;;;;;;8.35;100.00;98811.06;5069158;28;20032;-81
2021/12/01 05:19:27;;;;;;;1.60;1.50;;;;;;;8.35;100.00;98797.09;5064365;28;20048;-81
2021/12/01 05:21:56;;;;;;;5.20;2.30;;;;;;;8.36;100.00;98798.84;5052722;28;20051;-80
2021/12/01 05:24:24;;;;;;;2.70;2.30;;;;;;;8.35;100.00;98797.94;4996686;28;20617;-81
2021/12/01 05:26:53;;;;;;;2.25;2.05;;;;;;;8.36;100.00;98788.34;5069355;28;20033;-81
2021/12/01 05:29:23;;;;;;;2.42;2.22;;;;;;;8.34;100.00;98791.00;5021879;28;20048;-81
2021/12/01 05:31:54;;;;;;;3.17;2.00;;;;;;;8.34;100.00;98774.41;5061236;28;20045;-81
2021/12/01 05:34:25;;;;;;;2.17;1.90;;;;;;;8.33;100.00;98767.41;5038623;28;20045;-81
2021/12/01 05:37:00;;;;;;;;;;;;;;;8.31;100.00;98780.56;5059144;28;20502;-80
2021/12/01 05:39:29;;;;;;;3.42;2.00;;;;;;;8.30;100.00;98768.34;5025372;28;19951;-81
2021/12/01 05:41:59;;;;;;;1.90;1.50;;;;;;;8.31;100.00;98763.94;5033253;28;20032;-80
2021/12/01 05:44:29;;;;;;;2.40;1.77;;;;;;;8.29;100.00;98761.34;5067796;28;20165;-80
2021/12/01 05:46:58;;;;;;;;;;;;;;;8.27;100.00;98750.03;5051373;28;20051;-80
2021/12/01 05:49:26;;;;;;;1.15;1.10;;;;;;;8.28;100.00;98750.88;5042443;28;20491;-80
2021/12/01 05:51:58;;;;;;;1.33;1.20;;;;;;;8.26;100.00;98726.44;5059792;28;20057;-81
2021/12/01 05:54:27;;;;;;;2.17;1.23;;;;;;;8.24;100.00;98728.22;5061350;28;20276;-80
2021/12/01 05:56:55;;;;;;;1.42;1.30;;;;;;;8.24;100.00;98722.97;5013507;28;20052;-80
2021/12/01 05:59:23;;;;;;;1.02;1.02;;;;;;;8.23;100.00;98718.66;5055324;28;20052;-81
2021/12/01 06:01:52;;;;;;;1.52;1.15;;;;;;;8.20;100.00;98699.47;5042460;28;20037;-80
2021/12/01 06:04:24;;;;;;;1.13;1.02;;;;;;;8.21;100.00;98705.56;5026259;28;20185;-81
2021/12/01 06:06:52;;;;;;;2.45;1.38;;;;;;;8.19;100.00;98702.97;5056962;28;20032;-82
2021/12/01 06:09:20;;;;;;;1.35;1.25;;;;;;;8.18;100.00;98685.50;5051816;28;20044;-81
2021/12/01 06:11:51;;;;;;;1.48;1.38;;;;;;;8.18;100.00;98689.88;5013228;28;20037;-81
2021/12/01 06:14:20;;;;;;;1.52;1.40;;;;;;;8.16;100.00;98673.31;5045555;28;20074;-80
2021/12/01 06:16:49;;;;;;;1.58;1.48;;;;;;;8.14;100.00;98677.72;5033392;28;20044;-81
2021/12/01 06:19:17;;;;;;;1.05;1.05;;;;;;;8.13;100.00;98661.13;5034381;28;20273;-81
2021/12/01 06:21:46;;;;;;;1.45;1.35;;;;;;;8.13;100.00;98661.13;5059064;28;20056;-80
2021/12/01 06:24:17;;;;;;;1.60;1.30;;;;;;;8.13;100.00;98666.38;5051852;28;20044;-80
2021/12/01 06:26:45;;;;;;;1.23;1.13;;;;;;;8.11;100.00;98655.06;5010912;28;20047;-82
2021/12/01 06:29:14;;;;;;;1.80;1.70;;;;;;;8.12;100.00;98641.03;5031298;28;20415;-80
2021/12/01 06:31:42;;;;;;;2.63;1.60;;;;;;;8.11;100.00;98641.03;5031407;28;20051;-80
2021/12/01 06:34:11;;;;;;;1.98;1.73;;;;;;;8.08;100.00;98646.38;5050849;28;20064;-82
2021/12/01 06:36:40;;;;;;;2.17;1.60;;;;;;;8.07;100.00;98614.06;5043170;28;20036;-81
2021/12/01 06:39:11;;;;;;;1.60;1.50;;;;;;;8.05;100.00;98626.31;5054864;28;20540;-80
2021/12/01 06:41:39;;;;;;;2.00;1.80;;;;;;;8.05;100.00;98618.44;5020708;28;20051;-81
2021/12/01 06:44:14;;;;;;;1.58;1.52;;;;;;;8.03;100.00;98617.63;5048674;28;20529;-80
2021/12/01 06:47:33;;;;;;;2.00;1.90;;;;;;;8.01;100.00;98606.28;5078373;28;20509;-85
2021/12/01 06:50:04;;;;;;;1.60;1.50;;;;;;;8.02;100.00;98599.31;5031649;28;20694;-84
2021/12/01 06:52:32;;;;;;;1.75;1.65;;;;;;;8.00;100.00;98589.72;5061842;28;20367;-83
2021/12/01 06:55:02;;;;;;;2.00;1.90;;;;;;;7.99;100.00;98589.72;5032079;28;20044;-83
2021/12/01 06:57:31;;;;;;;1.90;1.80;;;;;;;7.98;100.00;98585.41;4990689;28;20044;-82
2021/12/01 07:00:00;;;;;;;2.00;1.90;;;;;;;7.97;100.00;98573.16;5039322;28;20052;-83
2021/12/01 07:02:29;;;;;;;2.08;1.98;;;;;;;7.94;100.00;98573.22;5048724;28;20394;-85
2021/12/01 07:04:58;;;;;;;1.90;1.80;;;;;;;7.93;100.00;98563.66;5040029;28;20363;-82
2021/12/01 07:07:26;;;;;;;1.80;1.70;;;;;;;7.91;100.00;98558.44;5023395;28;20045;-81
2021/12/01 07:09:55;;;;;;;1.80;1.70;;;;;;;7.90;100.00;98546.25;5057461;28;20493;-82
2021/12/01 07:12:26;;;;;;;1.90;1.80;;;;;;;7.88;100.00;98550.66;4996959;28;20083;-82
2021/12/01 07:14:55;;;;;;;1.77;1.67;;;;;;;7.86;100.00;98543.72;5041744;28;20052;-82
2021/12/01 07:17:24;;;;;;;1.63;1.52;;;;;;;7.86;100.00;98541.09;5053167;28;20166;-83
2021/12/01 07:19:52;;;;;;;2.72;1.65;;;;;;;7.84;100.00;98541.13;5057844;28;20414;-82
2021/12/01 07:22:24;;;;;;;1.45;1.35;;;;;;;7.83;100.00;98530.69;5040452;28;20088;-82
2021/12/01 07:24:52;;;;;;;1.80;1.70;;;;;;;7.80;100.00;98531.59;5065987;28;20049;-82
2021/12/01 07:27:21;;;;;;;1.60;1.50;;;;;;;7.78;100.00;98534.25;4999225;28;20244;-81
2021/12/01 07:29:49;;;;;;;1.70;1.60;;;;;;;7.75;100.00;98523.84;5040982;28;20040;-80
2021/12/01 07:32:18;;;;;;;1.27;1.20;;;;;;;7.75;100.00;98520.34;5041363;28;20052;-82
2021/12/01 07:34:46;;;;;;;1.30;1.30;;;;;;;7.76;100.00;98519.47;5019444;28;20040;-82
2021/12/01 07:37:17;;;;;;;1.75;1.60;;;;;;;7.74;100.00;98514.25;5023819;28;20245;-82
2021/12/01 07:39:46;;;;;;;;;;;;;;;7.73;100.00;98509.03;5056885;28;20048;-81
2021/12/01 07:42:15;;;;;;;1.67;1.58;;;;;;;7.72;100.00;98492.44;5057102;28;20133;-83
2021/12/01 07:44:45;;;;;;;1.42;1.42;;;;;;;7.71;100.00;98493.38;5023175;28;20397;-82
2021/12/01 07:47:15;;;;;;;2.92;1.70;;;;;;;7.71;100.00;98489.84;5053339;28;20041;-82
2021/12/01 07:49:44;;;;;;;4.13;1.88;;;;;;;7.71;100.00;98480.25;5065757;28;20044;-82
2021/12/01 07:52:12;;;;;;;2.28;1.95;;;;;;;7.70;100.00;98478.50;5052126;28;20521;-82
2021/12/01 07:54:41;;;;;;;1.95;1.85;;;;;;;7.69;100.00;98468.06;5028053;28;20048;-81
2021/12/01 07:57:10;;;;;;;1.85;1.73;;;;;;;7.69;100.00;98476.78;5058855;28;20040;-82
2021/12/01 07:59:38;;;;;;;1.90;1.80;;;;;;;7.71;100.00;98461.00;5021777;28;20037;-82
2021/12/01 08:02:07;;;;;;;1.63;1.50;;;;;;;7.71;100.00;98469.78;5029354;28;20268;-82
2021/12/01 08:04:38;;;;;;;1.63;1.50;;;;;;;7.72;100.00;98458.38;5065215;28;20507;-81
2021/12/01 08:07:07;;;;;;;1.70;1.60;;;;;;;7.74;100.00;98443.47;5023622;28;20431;-82
2021/12/01 08:09:36;;;;;;;2.03;1.92;;;;;;;7.75;100.00;98439.06;5054700;28;20045;-81
2021/12/01 08:12:07;;;;;;;1.90;1.70;;;;;;;7.78;100.00;98444.25;5054746;28;20049;-82
2021/12/01 08:14:36;;;;;;;3.10;2.10;;;;;;;7.81;100.00;98429.31;5071510;28;20048;-82
2021/12/01 08:17:05;;;;;;;3.30;2.40;;;;;;;7.84;100.00;98417.03;5009426;28;20732;-84
2021/12/01 08:19:33;;;;;;;2.58;2.30;;;;;;;7.86;100.00;98409.97;5058722;28;20601;-84
2021/12/01 08:22:03;;;;;;;7.85;2.17;;;;;;;7.87;100.00;98395.97;5034736;28;20045;-83
2021/12/01 08:24:32;;;;;;;5.72;2.55;;;;;;;7.90;100.00;98367.03;5024800;28;20048;-82
2021/12/01 08:27:01;;;;;;;2.70;2.33;;;;;;;7.89;100.00;98374.06;5012584;28;20493;-82
2021/12/01 08:29:29;;;;;;;3.63;2.40;;;;;;;7.90;100.00;98369.66;5065879;28;20494;-82
2021/12/01 08:32:04;;;;;;;2.28;2.13;;;;;;;7.93;100.00;98359.09;5030014;28;20613;-82
2021/12/01 08:34:33;;;;;;;4.35;2.50;;;;;;;7.94;100.00;98353.81;5032964;28;20064;-83
2021/12/01 08:37:01;;;;;;;2.75;2.55;;;;;;;7.96;100.00;98345.94;5049324;28;20049;-83
2021/12/01 08:39:30;;;;;;;2.80;2.40;;;;;;;7.95;100.00;98339.81;5055300;28;20033;-81
2021/12/01 08:41:59;;;;;;;2.65;2.40;;;;;;;7.96;100.00;98341.53;5035874;28;20520;-83
2021/12/01 08:44:28;;;;;;;4.28;3.42;;;;;;;7.96;100.00;98331.03;5031718;28;20044;-82
2021/12/01 08:46:58;;;;;;;3.88;3.15;;;;;;;7.97;100.00;98324.88;4997580;28;20111;-83
2021/12/01 08:49:26;;;;;;;5.75;2.60;;;;;;;7.97;100.00;98340.63;5064801;28;20041;-81
2021/12/01 08:51:55;;;;;;;3.15;2.85;;;;;;;7.99;100.00;98330.94;5038097;28;20056;-84
2021/12/01 08:54:23;;;;;;;4.90;3.20;;;;;;;8.00;100.00;98358.91;5012157;28;20493;-81
2021/12/01 08:56:52;;;;;;;3.22;2.45;;;;;;;7.99;100.00;98340.59;5024512;28;20063;-83
2021/12/01 08:59:21;;;;;;;2.75;2.30;;;;;;;8.00;100.00;98351.03;5033217;28;20048;-83
2021/12/01 09:01:50;;;;;;;3.17;1.73;;;;;;;8.01;100.00;98333.53;5024257;28;20045;-82
2021/12/01 09:04:19;;;;;;;3.88;2.13;;;;;;;8.00;100.00;98339.69;5037799;28;20572;-83
2021/12/01 09:06:48;;;;;;;7.32;2.30;;;;;;;7.99;100.00;98330.09;5039982;28;20395;-82
2021/12/01 09:09:19;;;;;;;7.15;1.60;;;;;;;7.97;100.00;98342.38;5008126;28;20332;-83
2021/12/01 09:11:50;;;;;;;4.60;1.58;;;;;;;8.00;100.00;98337.06;5027251;28;20122;-83
2021/12/01 09:14:23;;;;;;;5.40;1.50;;;;;;;7.99;100.00;98343.22;5062685;28;20064;-82
2021/12/01 09:16:55;;;;;;;9.05;1.23;;;;;;;7.98;100.00;98321.38;5032161;28;20032;-83
2021/12/01 09:19:27;;;;;;;13.90;2.15;;;;;;;7.99;100.00;98332.72;5036385;28;20049;-82
2021/12/01 09:21:55;;;;;;;5.40;1.55;;;;;;;7.98;100.00;98318.75;5061697;28;20045;-83
2021/12/01 09:24:24;;;;;;;4.43;1.50;;;;;;;7.96;100.00;98328.44;5066585;28;20049;-83
2021/12/01 09:26:56;;;;;;;9.82;2.13;;;;;;;7.96;100.00;98324.94;5033616;28;20052;-82
2021/12/01 09:29:27;;;;;;;3.53;1.60;;;;;;;7.96;100.00;98324.94;5068567;28;20056;-83
2021/12/01 09:31:56;;;;;;;5.28;1.70;;;;;;;7.91;100.00;98324.19;5064248;28;20390;-82
2021/12/01 09:34:26;;;;;;;8.55;2.10;;;;;;;7.90;100.00;98330.34;5009606;28;20055;-83
2021/12/01 09:36:54;;;;;;;6.95;1.40;;;;;;;7.88;100.00;98334.75;5034558;28;20045;-83
2021/12/01 09:39:24;;;;;;;5.95;1.30;;;;;;;7.87;100.00;98327.81;5061892;28;20055;-82
2021/12/01 09:41:55;;;;;;;8.43;1.58;;;;;;;7.85;100.00;98322.59;5019962;28;20045;-83
2021/12/01 09:44:24;;;;;;;9.07;1.63;;;;;;;7.82;100.00;98312.19;5057508;28;20512;-82
2021/12/01 09:46:53;;;;;;;4.13;1.35;;;;;;;7.80;100.00;98301.72;5036018;28;20044;-82
2021/12/01 09:49:21;;;;;;;5.43;1.40;;;;;;;7.78;100.00;98307.94;5026239;28;20059;-82
2021/12/01 09:51:53;;;;;;;6.57;1.40;;;;;;;7.80;100.00;98317.47;5002851;28;20532;-83
2021/12/01 09:54:23;;;;;;;8.13;1.60;;;;;;;7.81;100.00;98311.31;5045424;28;20025;-82
2021/12/01 09:56:51;;;;;;;4.97;2.03;;;;;;;7.83;100.00;98305.19;5045363;28;20040;-81
2021/12/01 09:59:20;;;;;;;6.82;1.20;;;;;;;7.80;100.00;98306.13;5051032;28;20052;-82
2021/12/01 10:01:48;;;;;;;8.30;1.75;;;;;;;7.78;100.00;98302.69;5070835;28;20048;-86
2021/12/01 10:04:17;;;;;;;6.28;1.23;;;;;;;7.78;100.00;98295.66;5053171;28;20036;-83
2021/12/01 10:07:11;;;;;;;8.15;1.80;;;;;;;7.79;100.00;98294.78;5020958;28;20037;-83
2021/12/01 10:09:44;;;;;;;7.70;1.40;;;;;;;7.87;100.00;98297.19;5029380;28;20049;-82
2021/12/01 10:12:15;;;;;;;5.20;1.25;;;;;;;7.91;100.00;98283.09;5054377;28;20249;-82
2021/12/01 10:14:49;;;;;;;4.80;1.23;;;;;;;7.90;100.00;98280.50;5070352;28;20060;-83
2021/12/01 10:17:32;;;;;;;6.07;1.30;;;;;;;7.89;100.00;98265.69;5057678;28;20137;-83
2021/12/01 10:20:15;;;;;;;8.40;1.52;;;;;;;7.90;100.00;98264.78;5053178;28;20052;-82
2021/12/01 10:23:22;;;;;;;6.53;1.77;;;;;;;7.93;100.00;98262.09;5037144;28;20052;-82
2021/12/01 10:25:51;;;;;;;7.65;1.45;;;;;;;7.94;100.00;98256.81;5046645;28;20040;-82
2021/12/01 10:28:38;;;;;;;5.53;1.25;;;;;;;7.97;100.00;98253.22;5015551;28;20339;-82
2021/12/01 10:31:13;;;;;;;6.68;1.70;;;;;;;8.01;100.00;98265.34;5059816;28;20064;-82
2021/12/01 10:33:42;;;;;;;8.65;1.67;;;;;;;8.05;100.00;98253.00;5057942;28;20041;-82
2021/12/01 10:36:11;;;;;;;11.23;2.00;;;;;;;8.07;100.00;98256.44;5028237;28;20059;-82
2021/12/01 10:38:43;;;;;;;15.70;2.67;;;;;;;8.09;100.00;98241.53;5083293;28;20371;-82
2021/12/01 10:41:14;;;;;;;11.25;2.40;;;;;;;8.08;100.00;98232.81;5044408;28;20253;-83
2021/12/01 10:43:46;;;;;;;13.23;2.35;;;;;;;8.13;100.00;98246.66;5042392;28;20032;-82
2021/12/01 10:46:18;;;;;;;9.85;1.95;;;;;;;8.17;100.00;98237.78;5028434;28;20060;-82
2021/12/01 10:49:00;;;;;;;13.02;2.30;;;;;;;8.15;100.00;98250.09;5036235;28;20032;-82
2021/12/01 10:51:35;;;;;;;11.15;1.60;;;;;;;8.13;100.00;98241.41;5034235;28;20045;-81
2021/12/01 10:54:04;;;;;;;11.70;2.10;;;;;;;8.15;100.00;98241.38;5049962;28;20048;-82
2021/12/01 10:56:36;;;;;;;5.80;1.77;;;;;;;8.16;100.00;98236.06;5056188;28;20041;-83
2021/12/01 10:59:12;;;;;;;4.75;1.95;;;;;;;8.15;100.00;98238.75;5037108;28;20052;-82
2021/12/01 11:01:40;;;;;;;7.10;1.70;;;;;;;8.13;100.00;98211.72;5053975;28;20410;-82
2021/12/01 11:04:12;;;;;;;6.30;1.75;;;;;;;8.17;100.00;98218.56;5062317;28;20045;-83
2021/12/01 11:06:43;;;;;;;9.07;2.50;;;;;;;8.19;100.00;98217.63;5006185;28;20055;-83
2021/12/01 11:09:12;;;;;;;;;;;;;;;8.15;100.00;98213.38;5064205;28;20068;-82
2021/12/01 11:11:50;;;;;;;6.53;2.03;;;;;;;8.15;100.00;98210.75;5063451;28;20306;-82
2021/12/01 11:14:26;;;;;;;8.30;2.58;;;;;;;8.14;100.00;98213.41;5040666;28;20036;-83
2021/12/01 11:16:57;;;;;;;9.95;2.88;;;;;;;8.09;100.00;98207.44;5041253;28;20040;-83
2021/12/01 11:19:33;;;;;;;9.48;2.00;;;;;;;8.07;100.00;98186.50;5057846;28;20048;-83
2021/12/01 11:22:31;;;;;;;11.48;2.50;;;;;;;8.05;100.00;98204.03;5038545;28;20051;-81
2021/12/01 11:25:19;;;;;;;16.65;3.65;;;;;;;8.06;100.00;98197.03;5066015;28;20485;-82
2021/12/01 11:27:49;;;;;;;13.23;2.88;;;;;;;8.05;100.00;98196.16;5066567;28;20037;-84
2021/12/01 11:30:19;;;;;;;11.57;2.20;;;;;;;8.03;100.00;98184.00;5062464;28;20410;-83
2021/12/01 11:33:13;;;;;;;12.48;2.30;;;;;;;7.96;100.00;98186.81;5065405;28;20041;-83
2021/12/01 11:35:44;;;;;;;10.82;2.47;;;;;;;7.93;100.00;98180.78;5084261;28;20051;-82
2021/12/01 11:38:13;;;;;;;17.23;2.78;;;;;;;7.90;100.00;98192.25;5032539;28;20269;-83
2021/12/01 11:40:43;;;;;;;11.85;1.73;;;;;;;7.86;100.00;98197.59;5043367;28;20056;-82
2021/12/01 11:43:19;;;;;;;13.30;3.00;;;;;;;7.80;100.00;98220.47;5061733;28;20052;-82
2021/12/01 11:45:48;;;;;;;11.38;2.47;;;;;;;7.76;100.00;98223.22;5064474;28;20045;-83
2021/12/01 11:48:21;;;;;;;20.25;3.70;;;;;;;7.69;100.00;98225.13;5071176;28;20036;-82
2021/12/01 11:51:08;;;;;;;20.13;3.33;;;;;;;7.59;100.00;98242.88;5048140;28;20063;-82